createdAt,value
2024-02-05T00:00:22.017Z,388.00
2024-02-05T00:01:22.106Z,400.00
2024-02-05T00:02:22.028Z,404.00
2024-02-05T00:12:23.528Z,406.00
2024-02-05T00:13:22.950Z,405.00
2024-02-05T00:14:23.008Z,406.00
2024-02-05T00:15:23.015Z,405.00
2024-02-05T00:16:23.466Z,407.00
2024-02-05T00:21:04.581Z,362.00
2024-02-05T00:22:04.450Z,369.00
2024-02-05T00:52:04.152Z,391.00
2024-02-05T00:52:51.487Z,398.00
2024-02-05T00:53:51.885Z,405.00
2024-02-05T00:54:51.608Z,362.00
2024-02-05T00:55:51.373Z,376.00
2024-02-05T00:56:51.378Z,378.00
2024-02-05T00:57:51.718Z,382.00
2024-02-05T00:58:51.377Z,383.00
2024-02-05T00:59:51.488Z,384.00
2024-02-05T01:00:51.405Z,389.00
2024-02-05T01:01:51.736Z,372.00
2024-02-05T01:02:51.326Z,401.00
2024-02-05T01:05:11.738Z,400.00
2024-02-05T01:06:12.169Z,407.00
2024-02-05T01:08:31.601Z,411.00
2024-02-05T01:09:31.189Z,414.00
2024-02-05T01:10:31.242Z,407.00
2024-02-05T01:11:32.211Z,402.00
2024-02-05T01:12:31.875Z,400.00
2024-02-05T01:13:32.248Z,381.00
2024-02-05T01:14:31.207Z,399.00
2024-02-05T01:15:31.302Z,393.00
2024-02-05T01:16:31.468Z,372.00
2024-02-05T01:17:31.547Z,381.00
2024-02-05T01:18:31.237Z,368.00
2024-02-05T01:19:31.466Z,387.00
2024-02-05T01:20:31.304Z,393.00
2024-02-05T01:21:32.593Z,400.00
2024-02-05T01:26:47.633Z,382.00
2024-02-05T01:27:34.599Z,391.00
2024-02-05T01:28:34.163Z,389.00
2024-02-05T01:41:16.853Z,403.00
2024-02-05T01:42:16.635Z,382.00
2024-02-05T01:43:15.890Z,384.00
2024-02-05T01:44:15.748Z,394.00
2024-02-05T01:45:16.509Z,402.00
2024-02-05T01:46:15.837Z,402.00
2024-02-05T01:51:55.447Z,414.00
2024-02-05T01:52:52.304Z,418.00
2024-02-05T01:53:52.557Z,397.00
2024-02-05T02:05:00.059Z,412.00
2024-02-05T02:05:59.801Z,404.00
2024-02-05T02:06:59.796Z,396.00
2024-02-05T02:08:00.748Z,389.00
2024-02-05T02:09:00.151Z,384.00
2024-02-05T02:10:00.407Z,381.00
2024-02-05T02:10:59.753Z,405.00
2024-02-05T02:11:59.656Z,407.00
2024-02-05T02:12:59.949Z,408.00
2024-02-05T02:14:00.070Z,414.00
2024-02-05T02:17:02.664Z,408.00
2024-02-05T02:18:02.524Z,413.00
2024-02-05T02:19:02.565Z,422.00
2024-02-05T02:20:03.032Z,420.00
2024-02-05T02:21:02.385Z,408.00
2024-02-05T02:22:02.545Z,414.00
2024-02-05T02:23:02.590Z,419.00
2024-02-05T02:25:50.450Z,430.00
2024-02-05T02:26:50.765Z,423.00
2024-02-05T02:27:50.080Z,380.00
2024-02-05T02:28:51.081Z,387.00
2024-02-05T02:32:57.253Z,398.00
2024-02-05T02:33:57.331Z,379.00
2024-02-05T02:34:58.531Z,398.00
2024-02-05T02:35:57.467Z,403.00
2024-02-05T02:36:57.283Z,410.00
2024-02-05T02:37:57.091Z,409.00
2024-02-05T02:38:57.089Z,415.00
2024-02-05T02:39:57.219Z,415.00
2024-02-05T02:40:57.234Z,410.00
2024-02-05T02:49:02.755Z,409.00
2024-02-05T02:50:02.276Z,400.00
2024-02-05T02:51:02.322Z,393.00
2024-02-05T02:52:02.405Z,377.00
2024-02-05T02:53:02.646Z,370.00
2024-02-05T02:54:02.101Z,369.00
2024-02-05T02:55:02.225Z,369.00
2024-02-05T02:56:03.237Z,370.00
2024-02-05T02:57:02.224Z,377.00
2024-02-05T02:58:02.173Z,385.00
2024-02-05T02:59:02.148Z,393.00
2024-02-05T03:00:03.159Z,391.00
2024-02-05T03:01:02.263Z,409.00
2024-02-05T03:02:02.522Z,407.00
2024-02-05T03:03:02.486Z,412.00
2024-02-05T03:04:02.337Z,409.00
2024-02-05T03:05:02.350Z,412.00
2024-02-05T03:06:02.120Z,408.00
2024-02-05T03:07:02.278Z,408.00
2024-02-05T03:08:02.223Z,405.00
2024-02-05T03:09:02.089Z,432.00
2024-02-05T03:10:02.205Z,403.00
2024-02-05T03:11:02.427Z,414.00
2024-02-05T03:12:02.012Z,413.00
2024-02-05T03:18:15.238Z,413.00
2024-02-05T03:19:15.060Z,381.00
2024-02-05T03:20:16.206Z,414.00
2024-02-05T03:21:16.164Z,399.00
2024-02-05T03:22:16.206Z,392.00
2024-02-05T03:23:15.144Z,387.00
2024-02-05T03:24:14.927Z,386.00
2024-02-05T03:25:15.038Z,393.00
2024-02-05T03:26:15.095Z,397.00
2024-02-05T03:28:35.713Z,380.00
2024-02-05T03:29:35.750Z,381.00
2024-02-05T03:30:35.000Z,402.00
2024-02-05T03:31:34.981Z,397.00
2024-02-05T03:32:34.733Z,393.00
2024-02-05T03:33:35.132Z,413.00
2024-02-05T03:37:04.952Z,412.00
2024-02-05T03:38:03.070Z,381.00
2024-02-05T03:40:23.415Z,455.00
2024-02-05T03:41:23.880Z,439.00
2024-02-05T03:42:23.619Z,421.00
2024-02-05T03:43:24.201Z,420.00
2024-02-05T03:54:36.936Z,405.00
2024-02-05T04:01:23.512Z,390.00
2024-02-05T04:06:24.993Z,414.00
2024-02-05T04:07:24.696Z,426.00
2024-02-05T04:08:24.636Z,422.00
2024-02-05T04:09:25.032Z,419.00
2024-02-05T04:13:27.366Z,414.00
2024-02-05T04:15:54.696Z,413.00
2024-02-05T04:16:46.683Z,354.00
2024-02-05T04:17:46.647Z,402.00
2024-02-05T04:18:46.922Z,385.00
2024-02-05T04:19:46.682Z,379.00
2024-02-05T04:20:47.154Z,378.00
2024-02-05T04:21:46.653Z,373.00
2024-02-05T04:22:46.762Z,370.00
2024-02-05T04:23:46.721Z,372.00
2024-02-05T04:24:46.697Z,410.00
2024-02-05T04:28:51.416Z,428.00
2024-02-05T04:29:50.954Z,447.00
2024-02-05T04:32:21.379Z,457.00
2024-02-05T04:35:30.433Z,432.00
2024-02-05T04:36:30.034Z,424.00
2024-02-05T04:48:37.693Z,371.00
2024-02-05T04:49:40.422Z,374.00
2024-02-05T04:50:38.607Z,388.00
2024-02-05T04:51:37.306Z,399.00
2024-02-05T04:52:37.693Z,405.00
2024-02-05T04:53:37.446Z,407.00
2024-02-05T04:54:37.248Z,403.00
2024-02-05T04:55:40.217Z,406.00
2024-02-05T04:56:37.300Z,408.00
2024-02-05T04:57:37.363Z,406.00
2024-02-05T04:58:37.379Z,389.00
2024-02-05T04:59:37.393Z,425.00
2024-02-05T05:03:16.832Z,410.00
2024-02-05T05:04:18.479Z,404.00
2024-02-05T05:05:16.782Z,396.00
2024-02-05T05:06:16.740Z,392.00
2024-02-05T05:07:16.825Z,388.00
2024-02-05T05:08:17.112Z,388.00
2024-02-05T05:09:17.067Z,391.00
2024-02-05T05:10:16.918Z,413.00
2024-02-05T05:11:17.467Z,423.00
2024-02-05T05:12:16.785Z,414.00
2024-02-05T05:13:16.949Z,411.00
2024-02-05T05:14:16.634Z,408.00
2024-02-05T05:15:16.803Z,402.00
2024-02-05T05:16:16.751Z,400.00
2024-02-05T05:17:16.824Z,403.00
2024-02-05T05:18:16.887Z,412.00
2024-02-05T05:19:16.763Z,395.00
2024-02-05T05:20:16.684Z,431.00
2024-02-05T05:21:16.713Z,450.00
2024-02-05T05:22:16.849Z,407.00
2024-02-05T05:23:17.278Z,413.00
2024-02-05T05:24:16.759Z,441.00
2024-02-05T05:25:17.010Z,440.00
2024-02-05T05:26:17.482Z,438.00
2024-02-05T05:27:16.974Z,439.00
2024-02-05T05:28:17.382Z,436.00
2024-02-05T05:30:38.401Z,444.00
2024-02-05T05:31:37.697Z,448.00
2024-02-05T05:32:37.532Z,454.00
2024-02-05T05:33:37.624Z,463.00
2024-02-05T05:37:17.912Z,444.00
2024-02-05T05:38:17.273Z,435.00
2024-02-05T05:39:16.748Z,439.00
2024-02-05T05:40:17.340Z,441.00
2024-02-05T05:41:16.994Z,441.00
2024-02-05T05:42:16.762Z,437.00
2024-02-05T05:43:16.875Z,438.00
2024-02-05T05:44:16.802Z,435.00
2024-02-05T05:45:16.746Z,435.00
2024-02-05T05:46:16.729Z,434.00
2024-02-05T06:05:12.273Z,464.00
2024-02-05T06:11:10.921Z,467.00
2024-02-05T06:22:55.297Z,462.00
2024-02-05T06:23:51.021Z,465.00
2024-02-05T06:24:50.450Z,458.00
2024-02-05T06:36:28.500Z,472.00
2024-02-05T06:37:27.574Z,468.00
2024-02-05T06:41:37.661Z,474.00
2024-02-05T06:42:23.543Z,473.00
2024-02-05T06:43:23.682Z,468.00
2024-02-05T06:44:24.035Z,466.00
2024-02-05T06:45:24.291Z,465.00
2024-02-05T06:46:24.028Z,467.00
2024-02-05T06:47:23.517Z,469.00
2024-02-05T06:51:47.325Z,471.00
2024-02-05T06:52:44.301Z,473.00
2024-02-05T07:00:26.615Z,476.00
2024-02-05T07:01:26.365Z,477.00
2024-02-05T07:02:28.504Z,479.00
2024-02-05T07:08:12.482Z,478.00
2024-02-05T07:09:11.536Z,479.00
2024-02-05T07:10:12.022Z,483.00
2024-02-05T07:11:11.016Z,485.00
2024-02-05T07:12:11.361Z,483.00
2024-02-05T07:16:26.893Z,481.00
2024-02-05T07:19:30.436Z,465.00
2024-02-05T07:21:48.614Z,478.00
2024-02-05T07:22:48.721Z,480.00
2024-02-05T07:23:48.836Z,474.00
2024-02-05T07:24:48.609Z,469.00
2024-02-05T07:25:48.492Z,470.00
2024-02-05T07:26:49.423Z,471.00
2024-02-05T07:36:23.682Z,472.00
2024-02-05T07:37:24.860Z,480.00
2024-02-05T07:38:23.612Z,481.00
2024-02-05T07:39:23.757Z,483.00
2024-02-05T07:40:23.908Z,483.00
2024-02-05T07:41:24.152Z,485.00
2024-02-05T08:03:12.676Z,491.00
2024-02-05T08:04:11.793Z,498.00
2024-02-05T08:05:14.776Z,499.00
2024-02-05T08:06:12.265Z,501.00
2024-02-05T08:07:11.622Z,504.00
2024-02-05T08:08:11.396Z,504.00
2024-02-05T08:09:11.885Z,504.00
2024-02-05T08:23:51.794Z,501.00
2024-02-05T08:24:51.837Z,501.00
2024-02-05T08:25:51.431Z,502.00
2024-02-05T08:26:51.404Z,503.00
2024-02-05T08:27:51.658Z,507.00
2024-02-05T08:28:51.619Z,507.00
2024-02-05T08:29:51.364Z,510.00
2024-02-05T08:30:51.689Z,505.00
2024-02-05T08:31:52.055Z,500.00
2024-02-05T08:32:51.711Z,495.00
2024-02-05T08:33:51.530Z,497.00
2024-02-05T08:34:51.529Z,491.00
2024-02-05T08:35:51.385Z,481.00
2024-02-05T08:36:51.334Z,484.00
2024-02-05T08:37:51.313Z,480.00
2024-02-05T08:38:51.444Z,486.00
2024-02-05T08:39:51.642Z,487.00
2024-02-05T08:40:51.340Z,494.00
2024-02-05T08:41:51.567Z,489.00
2024-02-05T08:42:51.484Z,480.00
2024-02-05T08:43:51.521Z,487.00
2024-02-05T08:44:51.735Z,493.00
2024-02-05T08:45:51.771Z,475.00
2024-02-05T08:46:51.373Z,484.00
2024-02-05T08:47:51.315Z,574.00
2024-02-05T08:48:51.416Z,481.00
2024-02-05T08:49:51.890Z,463.00
2024-02-05T08:50:51.308Z,484.00
2024-02-05T08:51:51.411Z,491.00
2024-02-05T08:52:51.209Z,483.00
2024-02-05T08:53:51.276Z,476.00
2024-02-05T08:54:51.244Z,445.00
2024-02-05T08:55:52.159Z,452.00
2024-02-05T08:56:51.325Z,468.00
2024-02-05T08:57:51.364Z,446.00
2024-02-05T08:58:51.231Z,445.00
2024-02-05T08:59:51.330Z,392.00
2024-02-05T09:00:51.326Z,443.00
2024-02-05T09:01:51.373Z,455.00
2024-02-05T09:02:52.106Z,470.00
2024-02-05T09:03:51.208Z,472.00
2024-02-05T09:04:51.218Z,498.00
2024-02-05T09:05:51.507Z,513.00
2024-02-05T09:06:51.872Z,597.00
2024-02-05T09:07:52.472Z,595.00
2024-02-05T09:08:51.191Z,458.00
2024-02-05T09:09:51.385Z,455.00
2024-02-05T09:10:51.140Z,428.00
2024-02-05T09:12:01.195Z,507.00
2024-02-05T09:12:52.511Z,431.00
2024-02-05T09:13:51.132Z,436.00
2024-02-05T09:14:51.191Z,458.00
2024-02-05T09:15:51.181Z,367.00
2024-02-05T09:16:53.880Z,447.00
2024-02-05T09:17:51.621Z,467.00
2024-02-05T09:18:51.213Z,485.00
2024-02-05T09:19:51.357Z,427.00
2024-02-05T09:20:51.308Z,412.00
2024-02-05T09:21:51.258Z,431.00
2024-02-05T09:22:52.105Z,458.00
2024-02-05T09:23:51.092Z,447.00
2024-02-05T09:24:51.225Z,470.00
2024-02-05T09:25:51.582Z,396.00
2024-02-05T09:26:51.461Z,397.00
2024-02-05T09:27:51.133Z,380.00
2024-02-05T09:28:51.664Z,449.00
2024-02-05T09:29:51.244Z,450.00
2024-02-05T09:31:01.623Z,513.00
2024-02-05T09:31:52.194Z,495.00
2024-02-05T09:32:51.483Z,432.00
2024-02-05T09:33:51.255Z,456.00
2024-02-05T09:34:51.189Z,450.00
2024-02-05T09:35:51.847Z,436.00
2024-02-05T09:36:51.127Z,498.00
2024-02-05T09:37:51.232Z,405.00
2024-02-05T09:38:51.948Z,499.00
2024-02-05T09:39:51.427Z,479.00
2024-02-05T09:40:51.113Z,423.00
2024-02-05T09:41:51.114Z,441.00
2024-02-05T09:42:51.121Z,452.00
2024-02-05T09:43:52.403Z,457.00
2024-02-05T09:44:51.182Z,468.00
2024-02-05T09:45:53.297Z,453.00
2024-02-05T09:46:51.765Z,504.00
2024-02-05T09:47:51.541Z,455.00
2024-02-05T09:48:52.375Z,473.00
2024-02-05T09:49:51.460Z,509.00
2024-02-05T09:50:51.346Z,425.00
2024-02-05T09:51:52.471Z,464.00
2024-02-05T09:52:51.446Z,440.00
2024-02-05T09:53:53.434Z,417.00
2024-02-05T09:54:51.797Z,487.00
2024-02-05T09:55:51.422Z,458.00
2024-02-05T09:56:51.333Z,398.00
2024-02-05T09:57:51.385Z,430.00
2024-02-05T09:58:51.332Z,378.00
2024-02-05T09:59:51.341Z,403.00
2024-02-05T10:00:52.635Z,350.00
2024-02-05T10:01:51.868Z,447.00
2024-02-05T10:02:51.334Z,554.00
2024-02-05T10:03:51.403Z,436.00
2024-02-05T10:04:51.482Z,446.00
2024-02-05T10:05:51.419Z,410.00
2024-02-05T10:06:51.421Z,433.00
2024-02-05T10:07:51.404Z,397.00
2024-02-05T10:08:51.234Z,554.00
2024-02-05T10:09:51.383Z,383.00
2024-02-05T10:10:51.276Z,496.00
2024-02-05T10:11:51.297Z,330.00
2024-02-05T10:12:51.302Z,401.00
2024-02-05T10:13:51.426Z,515.00
2024-02-05T10:14:51.370Z,390.00
2024-02-05T10:15:52.701Z,399.00
2024-02-05T10:16:52.218Z,413.00
2024-02-05T10:17:51.432Z,464.00
2024-02-05T10:18:51.689Z,384.00
2024-02-05T10:19:51.636Z,374.00
2024-02-05T10:20:51.424Z,421.00
2024-02-05T10:21:51.729Z,411.00
2024-02-05T10:22:52.205Z,411.00
2024-02-05T10:23:51.560Z,390.00
2024-02-05T10:24:51.666Z,354.00
2024-02-05T10:25:51.572Z,424.00
2024-02-05T10:26:51.823Z,403.00
2024-02-05T10:27:51.838Z,407.00
2024-02-05T10:28:51.830Z,416.00
2024-02-05T10:29:51.837Z,293.00
2024-02-05T10:30:51.986Z,361.00
2024-02-05T10:31:51.826Z,388.00
2024-02-05T10:32:51.939Z,385.00
2024-02-05T10:33:52.157Z,416.00
2024-02-05T10:34:51.979Z,382.00
2024-02-05T10:35:52.034Z,338.00
2024-02-05T10:36:52.379Z,370.00
2024-02-05T10:37:52.065Z,394.00
2024-02-05T10:38:52.165Z,504.00
2024-02-05T10:39:52.110Z,467.00
2024-02-05T10:40:52.264Z,389.00
2024-02-05T10:41:52.248Z,404.00
2024-02-05T10:42:53.081Z,406.00
2024-02-05T10:43:52.685Z,407.00
2024-02-05T10:44:52.217Z,403.00
2024-02-05T10:45:52.343Z,340.00
2024-02-05T10:46:53.638Z,394.00
2024-02-05T10:47:52.418Z,388.00
2024-02-05T10:48:52.433Z,414.00
2024-02-05T10:49:52.584Z,430.00
2024-02-05T10:50:52.450Z,436.00
2024-02-05T10:51:52.416Z,416.00
2024-02-05T10:52:52.460Z,415.00
2024-02-05T10:53:52.387Z,399.00
2024-02-05T10:54:52.648Z,361.00
2024-02-05T10:55:53.303Z,399.00
2024-02-05T10:56:52.477Z,368.00
2024-02-05T10:57:52.581Z,420.00
2024-02-05T10:58:52.704Z,370.00
2024-02-05T10:59:52.661Z,377.00
2024-02-05T11:00:52.734Z,425.00
2024-02-05T11:01:56.094Z,398.00
2024-02-05T11:02:52.774Z,418.00
2024-02-05T11:03:52.769Z,411.00
2024-02-05T11:04:53.051Z,397.00
2024-02-05T11:05:52.761Z,400.00
2024-02-05T11:06:52.861Z,363.00
2024-02-05T11:07:52.788Z,311.00
2024-02-05T11:08:52.763Z,385.00
2024-02-05T11:09:52.649Z,400.00
2024-02-05T11:10:52.765Z,389.00
2024-02-05T11:11:52.591Z,399.00
2024-02-05T11:12:52.781Z,396.00
2024-02-05T11:13:52.574Z,443.00
2024-02-05T11:14:52.576Z,409.00
2024-02-05T11:15:52.786Z,400.00
2024-02-05T11:16:52.536Z,335.00
2024-02-05T11:17:52.612Z,373.00
2024-02-05T11:18:52.726Z,362.00
2024-02-05T11:19:52.672Z,415.00
2024-02-05T11:20:52.665Z,388.00
2024-02-05T11:21:56.291Z,441.00
2024-02-05T11:22:52.824Z,395.00
2024-02-05T11:23:52.487Z,412.00
2024-02-05T11:24:52.619Z,241.00
2024-02-05T11:25:52.509Z,382.00
2024-02-05T11:26:52.610Z,439.00
2024-02-05T11:27:52.583Z,347.00
2024-02-05T11:28:52.498Z,400.00
2024-02-05T11:29:53.115Z,418.00
2024-02-05T11:30:52.513Z,362.00
2024-02-05T11:31:52.544Z,407.00
2024-02-05T11:32:52.673Z,380.00
2024-02-05T11:33:52.619Z,497.00
2024-02-05T11:34:52.730Z,497.00
2024-02-05T11:35:53.891Z,458.00
2024-02-05T11:36:52.562Z,366.00
2024-02-05T11:37:52.581Z,394.00
2024-02-05T11:38:52.574Z,396.00
2024-02-05T11:39:55.476Z,389.00
2024-02-05T11:40:52.665Z,393.00
2024-02-05T11:41:52.511Z,415.00
2024-02-05T11:42:53.236Z,368.00
2024-02-05T11:43:52.469Z,389.00
2024-02-05T11:44:52.454Z,450.00
2024-02-05T11:45:52.511Z,374.00
2024-02-05T11:46:52.324Z,444.00
2024-02-05T11:47:52.416Z,374.00
2024-02-05T11:48:53.221Z,393.00
2024-02-05T11:49:52.517Z,428.00
2024-02-05T11:50:52.339Z,365.00
2024-02-05T11:51:52.373Z,426.00
2024-02-05T11:52:53.194Z,377.00
2024-02-05T11:53:52.331Z,382.00
2024-02-05T11:54:52.516Z,437.00
2024-02-05T11:55:52.299Z,451.00
2024-02-05T11:56:52.434Z,404.00
2024-02-05T11:57:52.378Z,321.00
2024-02-05T11:58:52.409Z,348.00
2024-02-05T11:59:52.372Z,388.00
2024-02-05T12:00:52.379Z,438.00
2024-02-05T12:01:52.418Z,386.00
2024-02-05T12:02:52.248Z,388.00
2024-02-05T12:03:53.296Z,398.00
2024-02-05T12:04:52.259Z,394.00
2024-02-05T12:05:52.252Z,373.00
2024-02-05T12:06:52.411Z,392.00
2024-02-05T12:07:53.216Z,357.00
2024-02-05T12:08:53.988Z,459.00
2024-02-05T12:09:53.237Z,579.00
2024-02-05T12:10:52.279Z,389.00
2024-02-05T12:11:52.220Z,374.00
2024-02-05T12:12:52.233Z,567.00
2024-02-05T12:13:52.388Z,317.00
2024-02-05T12:14:54.091Z,396.00
2024-02-05T12:15:54.770Z,353.00
2024-02-05T12:16:53.248Z,325.00
2024-02-05T12:17:52.608Z,380.00
2024-02-05T12:18:53.890Z,378.00
2024-02-05T12:19:52.633Z,419.00
2024-02-05T12:20:54.646Z,393.00
2024-02-05T12:21:52.855Z,394.00
2024-02-05T12:22:52.572Z,426.00
2024-02-05T12:23:52.668Z,343.00
2024-02-05T12:24:52.670Z,338.00
2024-02-05T12:25:52.695Z,373.00
2024-02-05T12:26:52.622Z,321.00
2024-02-05T12:27:52.633Z,476.00
2024-02-05T12:28:53.632Z,317.00
2024-02-05T12:29:52.570Z,434.00
2024-02-05T12:30:52.586Z,390.00
2024-02-05T12:31:52.538Z,389.00
2024-02-05T12:32:52.564Z,428.00
2024-02-05T12:33:53.407Z,235.00
2024-02-05T12:34:52.665Z,452.00
2024-02-05T12:35:52.509Z,329.00
2024-02-05T12:36:52.606Z,427.00
2024-02-05T12:37:52.638Z,419.00
2024-02-05T12:38:52.515Z,387.00
2024-02-05T12:39:52.810Z,403.00
2024-02-05T12:40:52.480Z,404.00
2024-02-05T12:41:52.695Z,393.00
2024-02-05T12:42:52.527Z,541.00
2024-02-05T12:43:52.488Z,352.00
2024-02-05T12:45:01.411Z,395.00
2024-02-05T12:45:53.488Z,384.00
2024-02-05T12:46:52.464Z,394.00
2024-02-05T12:47:52.520Z,393.00
2024-02-05T12:48:52.547Z,398.00
2024-02-05T12:49:52.573Z,387.00
2024-02-05T12:50:52.443Z,398.00
2024-02-05T12:51:52.435Z,396.00
2024-02-05T12:52:52.389Z,395.00
2024-02-05T12:53:52.487Z,375.00
2024-02-05T12:54:52.642Z,386.00
2024-02-05T12:55:52.406Z,393.00
2024-02-05T12:56:52.510Z,394.00
2024-02-05T12:57:52.478Z,384.00
2024-02-05T12:58:52.515Z,394.00
2024-02-05T12:59:52.340Z,389.00
2024-02-05T13:00:52.527Z,386.00
2024-02-05T13:01:54.215Z,354.00
2024-02-05T13:02:52.411Z,404.00
2024-02-05T13:03:52.413Z,363.00
2024-02-05T13:04:52.629Z,372.00
2024-02-05T13:05:52.665Z,384.00
2024-02-05T13:06:52.492Z,347.00
2024-02-05T13:07:52.360Z,384.00
2024-02-05T13:08:52.378Z,384.00
2024-02-05T13:09:52.335Z,389.00
2024-02-05T13:10:52.488Z,389.00
2024-02-05T13:11:52.328Z,400.00
2024-02-05T13:12:52.483Z,391.00
2024-02-05T13:13:52.281Z,395.00
2024-02-05T13:14:52.318Z,402.00
2024-02-05T13:15:52.262Z,402.00
2024-02-05T13:16:52.271Z,395.00
2024-02-05T13:17:52.323Z,396.00
2024-02-05T13:18:52.435Z,396.00
2024-02-05T13:19:52.362Z,399.00
2024-02-05T13:20:52.160Z,398.00
2024-02-05T13:21:52.261Z,394.00
2024-02-05T13:22:52.192Z,387.00
2024-02-05T13:23:52.277Z,394.00
2024-02-05T13:24:53.235Z,388.00
2024-02-05T13:25:52.284Z,389.00
2024-02-05T13:26:52.300Z,385.00
2024-02-05T13:27:52.280Z,384.00
2024-02-05T13:28:52.205Z,385.00
2024-02-05T13:29:52.219Z,386.00
2024-02-05T13:30:52.201Z,389.00
2024-02-05T13:31:52.128Z,391.00
2024-02-05T13:32:52.160Z,393.00
2024-02-05T13:33:52.333Z,385.00
2024-02-05T13:34:52.286Z,353.00
2024-02-05T13:35:52.081Z,371.00
2024-02-05T13:36:52.114Z,379.00
2024-02-05T13:37:52.156Z,376.00
2024-02-05T13:38:52.795Z,382.00
2024-02-05T13:39:52.168Z,381.00
2024-02-05T13:40:52.126Z,373.00
2024-02-05T13:41:52.115Z,375.00
2024-02-05T13:42:52.138Z,377.00
2024-02-05T13:43:52.193Z,377.00
2024-02-05T13:44:52.124Z,376.00
2024-02-05T13:45:52.209Z,375.00
2024-02-05T13:46:52.050Z,382.00
2024-02-05T13:47:52.127Z,388.00
2024-02-05T13:48:52.094Z,388.00
2024-02-05T13:55:23.048Z,394.00
2024-02-05T13:56:21.986Z,392.00
2024-02-05T13:57:22.406Z,387.00
2024-02-05T13:58:22.221Z,391.00
2024-02-05T13:59:23.873Z,387.00
2024-02-05T14:00:24.740Z,389.00
2024-02-05T14:01:21.992Z,394.00
2024-02-05T14:02:21.952Z,396.00
2024-02-05T14:03:22.754Z,399.00
2024-02-05T14:04:22.051Z,398.00
2024-02-05T14:05:22.145Z,395.00
2024-02-05T14:06:22.095Z,397.00
2024-02-05T14:07:22.179Z,393.00
2024-02-05T14:08:22.075Z,390.00
2024-02-05T14:09:21.919Z,389.00
2024-02-05T14:10:21.955Z,391.00
2024-02-05T14:11:22.075Z,389.00
2024-02-05T14:12:21.951Z,384.00
2024-02-05T14:13:21.933Z,382.00
2024-02-05T14:14:21.888Z,387.00
2024-02-05T14:15:21.826Z,386.00
2024-02-05T14:16:21.967Z,390.00
2024-02-05T14:17:21.847Z,388.00
2024-02-05T14:18:22.074Z,383.00
2024-02-05T14:19:22.334Z,378.00
2024-02-05T14:20:21.858Z,382.00
2024-02-05T14:21:21.855Z,383.00
2024-02-05T14:22:21.971Z,384.00
2024-02-05T14:23:23.866Z,385.00
2024-02-05T14:24:22.006Z,388.00
2024-02-05T14:25:21.880Z,385.00
2024-02-05T14:26:21.788Z,381.00
2024-02-05T14:27:21.846Z,379.00
2024-02-05T14:28:21.831Z,380.00
2024-02-05T14:29:22.119Z,382.00
2024-02-05T14:30:21.811Z,386.00
2024-02-05T14:31:22.022Z,387.00
2024-02-05T14:32:23.878Z,383.00
2024-02-05T14:33:22.203Z,385.00
2024-02-05T14:34:22.242Z,387.00
2024-02-05T14:35:22.193Z,382.00
2024-02-05T14:36:22.302Z,379.00
2024-02-05T14:37:22.131Z,376.00
2024-02-05T14:38:22.274Z,378.00
2024-02-05T14:39:22.373Z,382.00
2024-02-05T14:40:22.450Z,385.00
2024-02-05T14:41:22.226Z,389.00
2024-02-05T14:42:23.500Z,384.00
2024-02-05T14:43:22.307Z,380.00
2024-02-05T14:44:22.541Z,385.00
2024-02-05T14:45:22.453Z,389.00
2024-02-05T14:46:22.756Z,392.00
2024-02-05T14:47:22.507Z,390.00
2024-02-05T14:48:23.347Z,384.00
2024-02-05T14:49:23.064Z,382.00
2024-02-05T14:50:22.788Z,381.00
2024-02-05T14:51:22.662Z,383.00
2024-02-05T14:52:22.634Z,384.00
2024-02-05T14:53:23.891Z,385.00
2024-02-05T14:54:22.631Z,388.00
2024-02-05T14:55:22.789Z,383.00
2024-02-05T14:56:22.806Z,382.00
2024-02-05T14:57:22.797Z,380.00
2024-02-05T14:58:22.961Z,378.00
2024-02-05T14:59:22.981Z,379.00
2024-02-05T15:00:23.166Z,374.00
2024-02-05T15:01:23.064Z,370.00
2024-02-05T15:02:22.977Z,372.00
2024-02-05T15:03:23.144Z,370.00
2024-02-05T15:04:23.081Z,376.00
2024-02-05T15:05:23.226Z,380.00
2024-02-05T15:06:23.313Z,382.00
2024-02-05T15:07:23.148Z,390.00
2024-02-05T15:08:23.152Z,391.00
2024-02-05T15:09:23.200Z,390.00
2024-02-05T15:10:23.199Z,387.00
2024-02-05T15:11:23.184Z,386.00
2024-02-05T15:12:23.270Z,388.00
2024-02-05T15:13:23.324Z,385.00
2024-02-05T15:14:23.344Z,385.00
2024-02-05T15:15:23.406Z,384.00
2024-02-05T15:16:23.668Z,387.00
2024-02-05T15:17:23.512Z,389.00
2024-02-05T15:18:23.617Z,384.00
2024-02-05T15:19:23.676Z,385.00
2024-02-05T15:20:23.670Z,382.00
2024-02-05T15:21:23.663Z,384.00
2024-02-05T15:22:23.855Z,388.00
2024-02-05T15:23:23.618Z,386.00
2024-02-05T15:24:23.738Z,383.00
2024-02-05T15:25:23.812Z,384.00
2024-02-05T15:26:24.682Z,388.00
2024-02-05T15:27:23.870Z,390.00
2024-02-05T15:28:23.992Z,393.00
2024-02-05T15:29:23.846Z,392.00
2024-02-05T15:30:23.908Z,394.00
2024-02-05T15:31:24.078Z,401.00
2024-02-05T15:32:24.804Z,396.00
2024-02-05T15:33:24.765Z,395.00
2024-02-05T15:34:24.206Z,395.00
2024-02-05T15:35:24.289Z,395.00
2024-02-05T15:36:24.146Z,391.00
2024-02-05T15:37:24.386Z,392.00
2024-02-05T15:38:24.213Z,394.00
2024-02-05T15:39:24.224Z,392.00
2024-02-05T15:40:24.289Z,387.00
2024-02-05T15:41:24.392Z,386.00
2024-02-05T15:42:24.313Z,385.00
2024-02-05T15:43:25.467Z,388.00
2024-02-05T15:44:24.498Z,389.00
2024-02-05T15:45:24.577Z,389.00
2024-02-05T15:46:24.740Z,388.00
2024-02-05T15:47:24.801Z,383.00
2024-02-05T15:48:25.813Z,381.00
2024-02-05T15:49:24.865Z,382.00
2024-02-05T15:50:24.910Z,383.00
2024-02-05T15:51:24.990Z,380.00
2024-02-05T15:52:24.913Z,376.00
2024-02-05T15:53:24.875Z,376.00
2024-02-05T15:54:25.024Z,379.00
2024-02-05T15:55:26.315Z,380.00
2024-02-05T15:56:31.022Z,385.00
2024-02-05T15:57:26.047Z,385.00
2024-02-05T15:58:25.086Z,384.00
2024-02-05T15:59:25.045Z,387.00
2024-02-05T16:00:25.035Z,383.00
2024-02-05T16:01:27.705Z,379.00
2024-02-05T16:02:26.016Z,378.00
2024-02-05T16:03:24.953Z,382.00
2024-02-05T16:04:25.147Z,381.00
2024-02-05T16:05:25.018Z,372.00
2024-02-05T16:06:25.183Z,381.00
2024-02-05T16:07:26.544Z,378.00
2024-02-05T16:08:24.976Z,377.00
2024-02-05T16:09:24.947Z,375.00
2024-02-05T16:10:25.076Z,378.00
2024-02-05T16:11:24.908Z,376.00
2024-02-05T16:12:24.940Z,379.00
2024-02-05T16:13:26.986Z,375.00
2024-02-05T16:14:24.864Z,373.00
2024-02-05T16:15:24.845Z,369.00
2024-02-05T16:16:24.964Z,370.00
2024-02-05T16:17:24.872Z,370.00
2024-02-05T16:19:29.797Z,374.00
2024-02-05T16:20:28.091Z,381.00
2024-02-05T16:21:27.425Z,380.00
2024-02-05T16:22:27.556Z,373.00
2024-02-05T16:23:27.175Z,370.00
2024-02-05T16:24:27.359Z,373.00
2024-02-05T16:25:31.400Z,371.00
2024-02-05T16:26:27.176Z,369.00
2024-02-05T16:27:27.168Z,371.00
2024-02-05T16:28:27.200Z,372.00
2024-02-05T16:29:27.107Z,371.00
2024-02-05T16:30:27.296Z,374.00
2024-02-05T16:31:27.251Z,374.00
2024-02-05T16:32:27.310Z,373.00
2024-02-05T16:33:27.323Z,374.00
2024-02-05T16:34:27.490Z,371.00
2024-02-05T16:35:27.204Z,371.00
2024-02-05T16:36:27.148Z,370.00
2024-02-05T16:37:30.579Z,372.00
2024-02-05T16:38:27.081Z,374.00
2024-02-05T16:39:27.073Z,373.00
2024-02-05T16:40:27.205Z,372.00
2024-02-05T16:41:27.154Z,377.00
2024-02-05T16:42:27.084Z,376.00
2024-02-05T16:43:30.854Z,375.00
2024-02-05T16:44:27.096Z,377.00
2024-02-05T16:45:27.054Z,375.00
2024-02-05T16:46:27.162Z,376.00
2024-02-05T16:47:27.044Z,373.00
2024-02-05T16:48:27.243Z,368.00
2024-02-05T16:49:30.059Z,363.00
2024-02-05T16:50:27.062Z,363.00
2024-02-05T16:51:27.038Z,366.00
2024-02-05T16:52:27.107Z,368.00
2024-02-05T16:53:27.016Z,370.00
2024-02-05T16:54:27.080Z,366.00